Time;durP1;ratioP1;P1;durP2;ratioP2;P2;SDS_P1;SDS_P2;PMS_P1;PMS_P2;Temp;Humidity;BMP_temperature;BMP_pressure;BME280_temperature;BME280_humidity;BME280_pressure;Samples;Min_cycle;Max_cycle;Signal;HPM_P1;HPM_P2
2022/12/20 00:01:51;;;;;;;1.32;1.32;;;;;;;;;;1833864;78;26276;-38
2022/12/20 00:04:18;;;;;;;1.30;1.30;;;;;;;;;;1840941;77;26410;-45
2022/12/20 00:06:46;;;;;;;1.30;1.30;;;;;;;;;;1836933;78;26253;-36
2022/12/20 00:09:13;;;;;;;1.50;1.50;;;;;;;;;;1814200;78;26744;-36
2022/12/20 00:11:42;;;;;;;1.20;1.20;;;;;;;;;;1809105;78;26283;-37
2022/12/20 00:14:10;;;;;;;1.22;1.22;;;;;;;;;;1833478;78;26268;-42
2022/12/20 00:16:37;;;;;;;1.30;1.30;;;;;;;;;;1831131;78;26264;-40
2022/12/20 00:19:05;;;;;;;1.32;1.32;;;;;;;;;;1807373;78;26274;-42
2022/12/20 00:21:35;;;;;;;1.30;1.30;;;;;;;;;;1811110;77;26326;-38
2022/12/20 00:24:05;;;;;;;1.30;1.30;;;;;;;;;;1811610;79;26606;-39
2022/12/20 00:26:33;;;;;;;1.45;1.45;;;;;;;;;;1813633;78;26272;-38
2022/12/20 00:29:00;;;;;;;1.40;1.40;;;;;;;;;;1810423;78;26382;-43
2022/12/20 00:31:29;;;;;;;1.30;1.30;;;;;;;;;;1808551;79;26742;-36
2022/12/20 00:33:56;;;;;;;1.35;1.35;;;;;;;;;;1801114;79;26845;-38
2022/12/20 00:36:26;;;;;;;1.17;1.17;;;;;;;;;;1793785;78;26496;-36
2022/12/20 00:38:54;;;;;;;1.20;1.20;;;;;;;;;;1808523;79;26276;-39
2022/12/20 00:41:23;;;;;;;1.35;1.35;;;;;;;;;;1786873;79;26896;-43
2022/12/20 00:43:50;;;;;;;1.32;1.32;;;;;;;;;;1821149;78;26209;-42
2022/12/20 00:46:19;;;;;;;1.30;1.30;;;;;;;;;;1795616;78;26251;-36
2022/12/20 00:48:47;;;;;;;1.22;1.22;;;;;;;;;;1811175;78;26299;-36
2022/12/20 00:51:15;;;;;;;1.32;1.32;;;;;;;;;;1808229;78;26280;-37
2022/12/20 00:53:43;;;;;;;1.20;1.20;;;;;;;;;;1806162;78;26963;-40
2022/12/20 00:56:10;;;;;;;1.30;1.30;;;;;;;;;;1808623;78;26275;-40
2022/12/20 00:58:39;;;;;;;1.40;1.30;;;;;;;;;;1806606;78;26718;-39
2022/12/20 01:01:08;;;;;;;1.20;1.20;;;;;;;;;;1788408;79;26425;-36
2022/12/20 01:03:35;;;;;;;1.25;1.25;;;;;;;;;;1816924;78;26293;-42
2022/12/20 01:06:02;;;;;;;1.30;1.30;;;;;;;;;;1823710;78;26293;-40
2022/12/20 01:08:30;;;;;;;1.40;1.40;;;;;;;;;;1780621;78;26576;-37
2022/12/20 01:10:59;;;;;;;1.20;1.20;;;;;;;;;;1773242;80;26295;-37
2022/12/20 01:13:27;;;;;;;1.22;1.22;;;;;;;;;;1799158;78;26272;-39
2022/12/20 01:15:54;;;;;;;1.75;1.20;;;;;;;;;;1783658;79;26283;-36
2022/12/20 01:18:21;;;;;;;1.40;1.30;;;;;;;;;;1793442;80;26268;-37
2022/12/20 01:20:48;;;;;;;1.17;1.17;;;;;;;;;;1805297;79;26223;-36
2022/12/20 01:23:16;;;;;;;1.22;1.22;;;;;;;;;;1778893;80;26260;-36
2022/12/20 01:25:43;;;;;;;1.20;1.20;;;;;;;;;;1805118;78;26314;-39
2022/12/20 01:28:10;;;;;;;1.30;1.30;;;;;;;;;;1782990;78;26346;-42
2022/12/20 01:30:40;;;;;;;1.50;1.50;;;;;;;;;;1800565;78;26350;-36
2022/12/20 01:33:07;;;;;;;1.20;1.20;;;;;;;;;;1784193;78;26362;-36
2022/12/20 01:35:34;;;;;;;1.22;1.22;;;;;;;;;;1829218;78;26256;-37
2022/12/20 01:38:01;;;;;;;1.25;1.25;;;;;;;;;;1806218;78;26271;-38
2022/12/20 01:40:29;;;;;;;1.70;1.42;;;;;;;;;;1791370;79;26340;-37
2022/12/20 01:42:56;;;;;;;1.50;1.40;;;;;;;;;;1798996;80;26276;-37
2022/12/20 01:45:28;;;;;;;1.40;1.40;;;;;;;;;;1807491;78;26283;-38
2022/12/20 01:47:56;;;;;;;1.40;1.40;;;;;;;;;;1800015;80;26279;-40
2022/12/20 01:50:24;;;;;;;1.32;1.32;;;;;;;;;;1800389;78;26272;-38
2022/12/20 01:52:52;;;;;;;1.30;1.30;;;;;;;;;;1806142;78;26381;-41
2022/12/20 01:55:21;;;;;;;1.60;1.50;;;;;;;;;;1800945;79;26312;-37
2022/12/20 01:58:02;;;;;;;1.30;1.30;;;;;;;;;;1791065;80;26283;-40
2022/12/20 02:00:29;;;;;;;1.40;1.40;;;;;;;;;;1796088;78;26264;-46
2022/12/20 02:02:58;;;;;;;1.40;1.40;;;;;;;;;;1803464;79;26248;-41
2022/12/20 02:05:25;;;;;;;1.40;1.40;;;;;;;;;;1824412;77;26342;-37
2022/12/20 02:07:54;;;;;;;1.45;1.45;;;;;;;;;;1835819;78;25712;-44
2022/12/20 02:10:22;;;;;;;1.47;1.47;;;;;;;;;;1792995;78;26245;-41
2022/12/20 02:12:51;;;;;;;1.42;1.42;;;;;;;;;;1810589;78;26886;-36
2022/12/20 02:15:26;;;;;;;1.35;1.27;;;;;;;;;;1802613;78;26739;-40
2022/12/20 02:18:04;;;;;;;1.42;1.42;;;;;;;;;;1832669;78;26350;-37
2022/12/20 02:20:50;;;;;;;1.40;1.40;;;;;;;;;;1837887;78;26729;-36
2022/12/20 02:23:19;;;;;;;1.42;1.42;;;;;;;;;;1812475;78;26788;-41
2022/12/20 02:26:06;;;;;;;1.75;1.65;;;;;;;;;;1829296;78;26799;-36
2022/12/20 02:28:35;;;;;;;1.45;1.45;;;;;;;;;;1825777;78;26264;-40
2022/12/20 02:31:03;;;;;;;1.57;1.57;;;;;;;;;;1761264;78;26271;-39
2022/12/20 02:33:31;;;;;;;1.72;1.62;;;;;;;;;;1814273;78;26338;-39
2022/12/20 02:35:58;;;;;;;1.40;1.40;;;;;;;;;;1827247;78;26338;-39
2022/12/20 02:38:30;;;;;;;1.62;1.62;;;;;;;;;;1822974;78;27099;-37
2022/12/20 02:40:58;;;;;;;1.60;1.60;;;;;;;;;;1823813;78;26406;-40
2022/12/20 02:46:13;;;;;;;1.80;1.70;;;;;;;;;;1794606;79;26283;-43
2022/12/20 02:48:41;;;;;;;1.52;1.52;;;;;;;;;;1817524;78;26958;-39
2022/12/20 02:51:10;;;;;;;1.52;1.52;;;;;;;;;;1841141;78;26256;-38
2022/12/20 02:53:38;;;;;;;1.42;1.42;;;;;;;;;;1813713;78;26348;-37
2022/12/20 02:56:07;;;;;;;1.75;1.72;;;;;;;;;;1804625;78;26855;-42
2022/12/20 02:58:36;;;;;;;1.55;1.50;;;;;;;;;;1803081;78;26832;-36
2022/12/20 03:01:07;;;;;;;1.60;1.60;;;;;;;;;;1797607;78;26700;-37
2022/12/20 03:03:35;;;;;;;1.52;1.52;;;;;;;;;;1824500;78;26273;-38
2022/12/20 03:06:02;;;;;;;2.35;1.75;;;;;;;;;;1798553;79;26299;-36
2022/12/20 03:08:30;;;;;;;1.50;1.50;;;;;;;;;;1790306;79;26295;-36
2022/12/20 03:10:57;;;;;;;1.65;1.60;;;;;;;;;;1812527;78;26772;-40
2022/12/20 03:13:25;;;;;;;1.60;1.60;;;;;;;;;;1810067;78;27327;-36
2022/12/20 03:15:52;;;;;;;1.70;1.60;;;;;;;;;;1803612;78;26303;-36
2022/12/20 03:18:19;;;;;;;1.77;1.55;;;;;;;;;;1803537;79;26817;-37
2022/12/20 03:20:47;;;;;;;1.52;1.50;;;;;;;;;;1807753;79;26735;-47
2022/12/20 03:23:14;;;;;;;1.60;1.60;;;;;;;;;;1829158;78;26225;-40
2022/12/20 03:25:41;;;;;;;2.02;1.92;;;;;;;;;;1832653;78;26255;-37
2022/12/20 03:28:08;;;;;;;1.60;1.60;;;;;;;;;;1792742;79;26255;-38
2022/12/20 03:30:36;;;;;;;1.75;1.70;;;;;;;;;;1835931;78;26261;-37
2022/12/20 03:33:03;;;;;;;1.82;1.75;;;;;;;;;;1786965;79;26269;-36
2022/12/20 03:35:30;;;;;;;1.50;1.50;;;;;;;;;;1817344;78;26929;-37
2022/12/20 03:37:58;;;;;;;1.80;1.70;;;;;;;;;;1811272;78;26728;-43
2022/12/20 03:40:25;;;;;;;1.90;1.80;;;;;;;;;;1803061;79;26768;-41
2022/12/20 03:42:52;;;;;;;1.90;1.80;;;;;;;;;;1832755;78;26823;-41
2022/12/20 03:45:19;;;;;;;1.85;1.75;;;;;;;;;;1826332;77;26281;-38
2022/12/20 03:47:47;;;;;;;1.72;1.70;;;;;;;;;;1830743;77;26326;-38
2022/12/20 03:50:14;;;;;;;1.80;1.77;;;;;;;;;;1832858;78;26306;-40
2022/12/20 03:52:41;;;;;;;1.70;1.70;;;;;;;;;;1832909;78;26304;-37
2022/12/20 03:55:11;;;;;;;1.70;1.70;;;;;;;;;;1833908;78;26268;-38
2022/12/20 03:57:39;;;;;;;1.87;1.85;;;;;;;;;;1828668;78;26338;-39
2022/12/20 04:00:06;;;;;;;2.05;1.95;;;;;;;;;;1840315;78;26894;-40
2022/12/20 04:02:34;;;;;;;1.80;1.70;;;;;;;;;;1820307;78;26993;-40
2022/12/20 04:05:01;;;;;;;1.70;1.70;;;;;;;;;;1787397;79;26319;-37
2022/12/20 04:07:28;;;;;;;1.65;1.57;;;;;;;;;;1805803;78;26283;-40
2022/12/20 04:09:56;;;;;;;2.10;2.00;;;;;;;;;;1816320;78;26393;-40
2022/12/20 04:12:23;;;;;;;1.85;1.75;;;;;;;;;;1808418;79;26224;-42
2022/12/20 04:14:50;;;;;;;1.80;1.70;;;;;;;;;;1810410;78;26307;-37
2022/12/20 04:17:17;;;;;;;1.77;1.67;;;;;;;;;;1816383;77;26267;-37
2022/12/20 04:19:45;;;;;;;1.60;1.60;;;;;;;;;;1820616;78;26799;-42
2022/12/20 04:22:12;;;;;;;1.80;1.72;;;;;;;;;;1819314;78;26864;-38
2022/12/20 04:24:40;;;;;;;1.70;1.70;;;;;;;;;;1825729;78;26337;-39
2022/12/20 04:27:08;;;;;;;1.75;1.75;;;;;;;;;;1844368;78;26252;-39
2022/12/20 04:29:36;;;;;;;1.75;1.67;;;;;;;;;;1800910;79;26256;-43
2022/12/20 04:32:03;;;;;;;1.80;1.70;;;;;;;;;;1799583;79;26313;-43
2022/12/20 04:34:30;;;;;;;1.85;1.75;;;;;;;;;;1787845;79;26282;-40
2022/12/20 04:36:57;;;;;;;1.75;1.67;;;;;;;;;;1809663;78;26279;-37
2022/12/20 04:39:25;;;;;;;2.02;1.92;;;;;;;;;;1816488;78;26265;-37
2022/12/20 04:41:52;;;;;;;1.80;1.77;;;;;;;;;;1808403;78;26254;-49
2022/12/20 04:44:19;;;;;;;1.90;1.80;;;;;;;;;;1789308;79;27501;-43
2022/12/20 04:46:46;;;;;;;1.80;1.70;;;;;;;;;;1806364;79;26260;-38
2022/12/20 04:49:14;;;;;;;1.82;1.80;;;;;;;;;;1823716;78;26318;-38
2022/12/20 04:51:41;;;;;;;1.90;1.80;;;;;;;;;;1825694;78;26284;-37
2022/12/20 04:54:08;;;;;;;1.90;1.80;;;;;;;;;;1795307;79;26248;-37
2022/12/20 04:56:36;;;;;;;3.87;1.60;;;;;;;;;;1817012;78;26269;-37
2022/12/20 04:59:03;;;;;;;1.80;1.70;;;;;;;;;;1809488;78;26900;-37
2022/12/20 05:01:31;;;;;;;2.00;1.90;;;;;;;;;;1811036;78;26404;-42
2022/12/20 05:03:58;;;;;;;2.00;1.90;;;;;;;;;;1800255;79;26345;-41
2022/12/20 05:06:25;;;;;;;1.60;1.60;;;;;;;;;;1836181;77;26265;-37
2022/12/20 05:08:54;;;;;;;1.90;1.80;;;;;;;;;;1834109;77;26810;-42
2022/12/20 05:11:21;;;;;;;1.80;1.70;;;;;;;;;;1822927;77;26300;-42
2022/12/20 05:13:48;;;;;;;1.77;1.67;;;;;;;;;;1820051;78;26276;-37
2022/12/20 05:16:15;;;;;;;1.75;1.65;;;;;;;;;;1794838;78;26314;-42
2022/12/20 05:18:43;;;;;;;1.80;1.70;;;;;;;;;;1786415;79;26227;-37
2022/12/20 05:26:41;;;;;;;1.52;1.52;;;;;;;;;;1822610;78;26299;-40
2022/12/20 05:29:08;;;;;;;1.70;1.70;;;;;;;;;;1814424;78;26279;-41
2022/12/20 05:31:35;;;;;;;1.70;1.60;;;;;;;;;;1818489;78;26330;-41
2022/12/20 05:34:02;;;;;;;1.77;1.67;;;;;;;;;;1821562;78;26330;-39
2022/12/20 05:36:30;;;;;;;1.80;1.70;;;;;;;;;;1820561;77;26275;-41
2022/12/20 05:38:57;;;;;;;1.85;1.75;;;;;;;;;;1821431;78;26259;-43
2022/12/20 05:41:24;;;;;;;1.50;1.50;;;;;;;;;;1813064;78;26267;-39
2022/12/20 05:43:52;;;;;;;1.90;1.80;;;;;;;;;;1802334;79;26283;-41
2022/12/20 05:46:19;;;;;;;1.80;1.70;;;;;;;;;;1810959;78;26353;-40
2022/12/20 05:48:46;;;;;;;2.17;1.70;;;;;;;;;;1803724;78;26290;-43
2022/12/20 05:51:13;;;;;;;1.50;1.50;;;;;;;;;;1798329;78;26752;-37
2022/12/20 05:53:41;;;;;;;2.05;1.65;;;;;;;;;;1811081;78;26284;-37
2022/12/20 05:56:08;;;;;;;1.67;1.60;;;;;;;;;;1813243;78;26252;-37
2022/12/20 05:58:35;;;;;;;1.70;1.60;;;;;;;;;;1819020;78;26330;-37
2022/12/20 06:01:05;;;;;;;1.62;1.60;;;;;;;;;;1812553;78;26732;-38
2022/12/20 06:03:32;;;;;;;2.35;1.80;;;;;;;;;;1810141;78;26357;-39
2022/12/20 06:05:59;;;;;;;1.52;1.50;;;;;;;;;;1812541;78;26263;-38
2022/12/20 06:08:27;;;;;;;1.80;1.70;;;;;;;;;;1812902;78;26263;-40
2022/12/20 06:10:54;;;;;;;1.90;1.47;;;;;;;;;;1809383;79;26312;-40
2022/12/20 06:13:22;;;;;;;1.90;1.80;;;;;;;;;;1790767;79;26319;-41
2022/12/20 06:15:49;;;;;;;7.25;1.90;;;;;;;;;;1796217;78;26257;-43
2022/12/20 06:18:17;;;;;;;1.90;1.80;;;;;;;;;;1829680;78;26266;-36
2022/12/20 06:20:46;;;;;;;3.00;1.90;;;;;;;;;;1814741;77;26257;-43
2022/12/20 06:23:13;;;;;;;4.97;1.80;;;;;;;;;;1806541;79;26284;-37
2022/12/20 06:25:40;;;;;;;2.35;1.70;;;;;;;;;;1832348;77;26291;-43
2022/12/20 06:28:07;;;;;;;1.82;1.72;;;;;;;;;;1822716;78;26399;-37
2022/12/20 06:30:35;;;;;;;1.70;1.60;;;;;;;;;;1800011;78;26277;-37
2022/12/20 06:33:02;;;;;;;2.12;1.62;;;;;;;;;;1803556;79;26284;-40
2022/12/20 06:35:30;;;;;;;1.87;1.77;;;;;;;;;;1811458;78;26268;-37
2022/12/20 06:37:57;;;;;;;3.65;1.82;;;;;;;;;;1818658;78;26723;-39
2022/12/20 06:40:24;;;;;;;4.15;1.70;;;;;;;;;;1824925;78;26236;-43
2022/12/20 06:42:52;;;;;;;1.82;1.70;;;;;;;;;;1809286;78;26350;-40
2022/12/20 06:45:19;;;;;;;1.92;1.42;;;;;;;;;;1804414;79;26563;-41
2022/12/20 06:47:46;;;;;;;2.27;1.62;;;;;;;;;;1817504;78;26291;-41
2022/12/20 06:50:13;;;;;;;3.98;1.50;;;;;;;;;;1802360;78;26284;-40
2022/12/20 06:52:41;;;;;;;1.90;1.80;;;;;;;;;;1828799;78;26398;-39
2022/12/20 06:55:08;;;;;;;3.22;1.90;;;;;;;;;;1818578;78;26421;-36
2022/12/20 06:57:35;;;;;;;2.40;1.65;;;;;;;;;;1811601;78;26264;-43
2022/12/20 07:00:03;;;;;;;3.92;1.77;;;;;;;;;;1803881;79;26295;-38
2022/12/20 07:02:31;;;;;;;1.72;1.37;;;;;;;;;;1800985;78;26341;-38
2022/12/20 07:04:58;;;;;;;5.62;1.70;;;;;;;;;;1818291;78;26270;-40
2022/12/20 07:07:25;;;;;;;3.95;1.70;;;;;;;;;;1784097;79;26360;-43
2022/12/20 07:09:52;;;;;;;1.60;1.50;;;;;;;;;;1810817;78;26351;-42
2022/12/20 07:12:20;;;;;;;2.35;1.62;;;;;;;;;;1818596;78;26355;-35
2022/12/20 07:14:47;;;;;;;1.85;1.40;;;;;;;;;;1804448;78;26333;-37
2022/12/20 07:17:14;;;;;;;2.22;1.37;;;;;;;;;;1817894;78;26337;-41
2022/12/20 07:19:42;;;;;;;1.30;1.30;;;;;;;;;;1815377;78;26256;-39
2022/12/20 07:22:09;;;;;;;1.60;1.50;;;;;;;;;;1778233;79;26338;-40
2022/12/20 07:24:36;;;;;;;1.32;1.30;;;;;;;;;;1783350;79;26710;-39
2022/12/20 07:27:03;;;;;;;1.32;1.32;;;;;;;;;;1803640;78;26601;-40
2022/12/20 07:29:31;;;;;;;1.20;1.20;;;;;;;;;;1811034;77;26585;-43
2022/12/20 07:31:58;;;;;;;5.12;1.32;;;;;;;;;;1803840;78;26260;-36
2022/12/20 07:34:25;;;;;;;1.37;1.37;;;;;;;;;;1805805;78;26290;-47
2022/12/20 07:36:52;;;;;;;11.97;1.47;;;;;;;;;;1802528;78;26337;-46
2022/12/20 07:39:20;;;;;;;2.70;1.12;;;;;;;;;;1798349;78;26310;-48
2022/12/20 07:41:47;;;;;;;4.67;1.32;;;;;;;;;;1816008;78;26359;-45
2022/12/20 07:44:14;;;;;;;1.40;1.30;;;;;;;;;;1805775;78;26241;-42
2022/12/20 07:46:41;;;;;;;1.32;1.25;;;;;;;;;;1802657;78;26371;-38
2022/12/20 07:49:09;;;;;;;1.27;1.20;;;;;;;;;;1806284;78;26304;-38
2022/12/20 07:51:38;;;;;;;1.85;1.20;;;;;;;;;;1798358;79;26281;-40
2022/12/20 07:54:13;;;;;;;3.42;1.15;;;;;;;;;;1806672;78;26338;-40
2022/12/20 07:56:41;;;;;;;1.35;1.20;;;;;;;;;;1801948;78;26285;-42
2022/12/20 07:59:11;;;;;;;1.15;1.15;;;;;;;;;;1802284;78;26341;-38
2022/12/20 08:01:38;;;;;;;1.65;1.17;;;;;;;;;;1805650;78;26859;-41
2022/12/20 08:04:07;;;;;;;1.35;1.25;;;;;;;;;;1804872;78;26309;-37
2022/12/20 08:06:36;;;;;;;1.57;1.05;;;;;;;;;;1801541;78;26288;-41
2022/12/20 08:09:04;;;;;;;1.10;1.10;;;;;;;;;;1803276;78;26333;-33
2022/12/20 08:11:33;;;;;;;1.27;1.17;;;;;;;;;;1801597;79;26406;-36
2022/12/20 08:14:00;;;;;;;1.30;1.20;;;;;;;;;;1807358;78;26257;-38
2022/12/20 08:16:28;;;;;;;1.67;1.20;;;;;;;;;;1811141;78;26256;-37
2022/12/20 08:18:55;;;;;;;1.40;1.30;;;;;;;;;;1794270;79;26300;-42
2022/12/20 08:21:22;;;;;;;1.20;1.10;;;;;;;;;;1805993;78;27196;-38
2022/12/20 08:23:50;;;;;;;1.65;1.02;;;;;;;;;;1762476;80;26772;-41
2022/12/20 08:26:17;;;;;;;3.42;1.22;;;;;;;;;;1808954;78;26304;-39
2022/12/20 08:28:45;;;;;;;1.15;1.10;;;;;;;;;;1794598;79;26309;-41
2022/12/20 08:31:13;;;;;;;1.57;1.20;;;;;;;;;;1786156;78;26759;-43
2022/12/20 08:33:40;;;;;;;1.27;1.20;;;;;;;;;;1809220;78;26393;-41
2022/12/20 08:36:09;;;;;;;1.00;1.00;;;;;;;;;;1774669;80;26447;-39
2022/12/20 08:38:36;;;;;;;2.62;1.47;;;;;;;;;;1790682;80;26346;-38
2022/12/20 08:41:07;;;;;;;1.75;1.15;;;;;;;;;;1761892;80;26911;-36
2022/12/20 08:43:35;;;;;;;2.05;1.05;;;;;;;;;;1796429;79;26249;-36
2022/12/20 08:46:02;;;;;;;1.22;1.10;;;;;;;;;;1786839;79;26870;-37
2022/12/20 08:48:31;;;;;;;1.85;1.10;;;;;;;;;;1784997;79;26315;-35
2022/12/20 08:50:59;;;;;;;1.15;1.07;;;;;;;;;;1788324;79;26804;-36
2022/12/20 08:53:28;;;;;;;1.57;1.10;;;;;;;;;;1803461;78;26306;-36
2022/12/20 08:55:57;;;;;;;1.05;1.00;;;;;;;;;;1762618;80;26294;-36
2022/12/20 08:58:24;;;;;;;0.95;0.95;;;;;;;;;;1775998;80;26286;-37
2022/12/20 09:00:51;;;;;;;1.00;1.00;;;;;;;;;;1782573;78;26342;-42
2022/12/20 09:03:19;;;;;;;1.00;1.00;;;;;;;;;;1786947;78;26370;-36
2022/12/20 09:05:46;;;;;;;2.75;1.20;;;;;;;;;;1779482;80;26690;-33
2022/12/20 09:08:15;;;;;;;1.85;0.80;;;;;;;;;;1765516;80;26264;-45
2022/12/20 09:10:43;;;;;;;1.10;1.10;;;;;;;;;;1795182;78;26414;-34
2022/12/20 09:13:11;;;;;;;1.05;1.00;;;;;;;;;;1796887;78;27498;-37
2022/12/20 09:15:38;;;;;;;0.93;0.93;;;;;;;;;;1802969;78;26354;-39
2022/12/20 09:18:05;;;;;;;0.90;0.90;;;;;;;;;;1799788;78;27122;-36
2022/12/20 09:20:33;;;;;;;0.80;0.80;;;;;;;;;;1816552;78;26288;-43
2022/12/20 09:23:00;;;;;;;0.80;0.80;;;;;;;;;;1803784;78;27217;-37
2022/12/20 09:25:28;;;;;;;0.90;0.90;;;;;;;;;;1800157;78;27058;-38
2022/12/20 09:27:55;;;;;;;1.67;0.80;;;;;;;;;;1803000;78;25826;-35
2022/12/20 09:30:23;;;;;;;0.98;0.98;;;;;;;;;;1799378;78;26734;-36
2022/12/20 09:32:50;;;;;;;1.95;0.98;;;;;;;;;;1819085;77;26326;-40
2022/12/20 09:35:18;;;;;;;1.30;0.80;;;;;;;;;;1788617;79;26290;-35
2022/12/20 09:37:45;;;;;;;1.55;0.90;;;;;;;;;;1801691;78;26442;-43
2022/12/20 09:40:17;;;;;;;2.55;0.90;;;;;;;;;;1791666;78;27021;-39
2022/12/20 09:42:45;;;;;;;13.62;1.02;;;;;;;;;;1796537;78;26331;-47
2022/12/20 09:45:14;;;;;;;1.77;0.75;;;;;;;;;;1803778;78;26346;-37
2022/12/20 09:47:41;;;;;;;1.98;0.70;;;;;;;;;;1798714;78;26280;-37
2022/12/20 09:50:10;;;;;;;0.70;0.70;;;;;;;;;;1813123;78;26724;-38
2022/12/20 09:52:57;;;;;;;0.70;0.70;;;;;;;;;;1815969;78;26274;-47
2022/12/20 09:55:31;;;;;;;0.60;0.60;;;;;;;;;;1815563;78;26406;-40
2022/12/20 09:58:00;;;;;;;0.72;0.70;;;;;;;;;;1775909;79;26316;-44
2022/12/20 10:00:29;;;;;;;0.72;0.72;;;;;;;;;;1804052;78;26257;-35
2022/12/20 10:02:56;;;;;;;0.80;0.80;;;;;;;;;;1810521;78;26301;-38
2022/12/20 10:05:34;;;;;;;0.60;0.60;;;;;;;;;;1813532;78;26371;-39
2022/12/20 10:08:06;;;;;;;0.70;0.70;;;;;;;;;;1814405;78;26348;-36
2022/12/20 10:10:35;;;;;;;1.15;0.80;;;;;;;;;;1794012;79;26303;-44
2022/12/20 10:13:07;;;;;;;17.73;2.45;;;;;;;;;;1817147;77;26302;-35
2022/12/20 10:15:39;;;;;;;0.70;0.70;;;;;;;;;;1784795;79;26288;-34
2022/12/20 10:18:07;;;;;;;0.85;0.85;;;;;;;;;;1803351;78;27149;-35
2022/12/20 10:20:39;;;;;;;0.90;0.90;;;;;;;;;;1804932;77;26865;-34
2022/12/20 10:23:22;;;;;;;0.80;0.80;;;;;;;;;;1799266;79;26776;-36
2022/12/20 10:25:46;;;;;;;0.80;0.80;;;;;;;;;;1816239;77;26701;-38
2022/12/20 10:28:15;;;;;;;0.80;0.80;;;;;;;;;;1781896;79;26314;-41
2022/12/20 10:30:43;;;;;;;1.85;0.80;;;;;;;;;;1820149;77;26378;-37
2022/12/20 10:33:15;;;;;;;0.70;0.70;;;;;;;;;;1808709;78;26245;-37
2022/12/20 10:35:42;;;;;;;1.30;1.20;;;;;;;;;;1818850;77;26290;-43
2022/12/20 10:38:16;;;;;;;0.72;0.72;;;;;;;;;;1785532;79;26256;-40
2022/12/20 10:40:59;;;;;;;0.70;0.70;;;;;;;;;;1809672;78;26271;-36
2022/12/20 10:43:27;;;;;;;2.27;0.70;;;;;;;;;;1782641;79;27499;-38
2022/12/20 10:45:59;;;;;;;3.72;1.00;;;;;;;;;;1808789;78;26359;-44
2022/12/20 10:48:27;;;;;;;0.80;0.80;;;;;;;;;;1800254;78;26369;-40
2022/12/20 10:50:56;;;;;;;0.80;0.80;;;;;;;;;;1786235;79;26301;-40
2022/12/20 10:53:24;;;;;;;0.62;0.60;;;;;;;;;;1787722;79;27795;-41
2022/12/20 10:55:52;;;;;;;0.90;0.78;;;;;;;;;;1787172;79;26323;-41
2022/12/20 10:58:21;;;;;;;1.65;0.72;;;;;;;;;;1817921;77;26273;-37
2022/12/20 11:00:48;;;;;;;0.75;0.75;;;;;;;;;;1786132;79;26265;-39
2022/12/20 11:03:20;;;;;;;0.70;0.70;;;;;;;;;;1786540;79;27158;-41
2022/12/20 11:06:04;;;;;;;0.82;0.82;;;;;;;;;;1807413;78;26269;-39
2022/12/20 11:08:33;;;;;;;0.70;0.70;;;;;;;;;;1818488;77;27353;-47
2022/12/20 11:11:11;;;;;;;0.95;0.70;;;;;;;;;;1818176;77;27377;-38
2022/12/20 11:13:40;;;;;;;0.60;0.60;;;;;;;;;;1810586;77;26369;-37
2022/12/20 11:16:09;;;;;;;0.60;0.60;;;;;;;;;;1779869;79;26786;-42
2022/12/20 11:18:43;;;;;;;0.70;0.70;;;;;;;;;;1776922;79;26348;-42
2022/12/20 11:21:18;;;;;;;0.95;0.70;;;;;;;;;;1801016;78;25855;-46
2022/12/20 11:23:47;;;;;;;1.52;0.60;;;;;;;;;;1815733;78;26404;-38
2022/12/20 11:26:33;;;;;;;0.55;0.50;;;;;;;;;;1806098;78;26866;-38
2022/12/20 11:29:03;;;;;;;0.70;0.70;;;;;;;;;;1817983;78;26835;-36
2022/12/20 11:31:31;;;;;;;5.12;1.20;;;;;;;;;;1795803;78;26286;-36
2022/12/20 11:34:03;;;;;;;0.60;0.60;;;;;;;;;;1791440;79;27006;-39
2022/12/20 11:36:32;;;;;;;0.60;0.60;;;;;;;;;;1815497;78;26377;-41
2022/12/20 11:39:01;;;;;;;1.47;0.50;;;;;;;;;;1815349;78;26304;-39
2022/12/20 11:41:32;;;;;;;0.60;0.60;;;;;;;;;;1804314;78;26367;-42
2022/12/20 11:44:10;;;;;;;0.50;0.50;;;;;;;;;;1804333;78;26302;-37
2022/12/20 11:46:48;;;;;;;0.57;0.57;;;;;;;;;;1814054;77;27161;-37
2022/12/20 11:49:25;;;;;;;0.70;0.70;;;;;;;;;;1794496;78;26720;-43
2022/12/20 11:51:54;;;;;;;0.50;0.50;;;;;;;;;;1816306;78;26343;-37
2022/12/20 11:54:28;;;;;;;1.80;0.70;;;;;;;;;;1817816;78;27182;-39
2022/12/20 11:56:57;;;;;;;1.20;0.65;;;;;;;;;;1820590;78;26331;-35
2022/12/20 11:59:26;;;;;;;0.47;0.47;;;;;;;;;;1814723;78;26295;-35
2022/12/20 12:01:54;;;;;;;0.60;0.60;;;;;;;;;;1797245;78;26370;-41
2022/12/20 12:04:26;;;;;;;0.50;0.50;;;;;;;;;;1802753;77;26307;-37
2022/12/20 12:06:55;;;;;;;0.60;0.60;;;;;;;;;;1795954;78;26338;-43
2022/12/20 12:09:24;;;;;;;0.60;0.60;;;;;;;;;;1814546;78;26311;-37
2022/12/20 12:11:55;;;;;;;0.60;0.60;;;;;;;;;;1815708;78;26316;-45
2022/12/20 12:14:24;;;;;;;0.50;0.50;;;;;;;;;;1803931;78;26329;-44
2022/12/20 12:16:53;;;;;;;0.60;0.60;;;;;;;;;;1806339;77;26795;-36
2022/12/20 12:19:22;;;;;;;0.60;0.60;;;;;;;;;;1796335;79;26279;-41
2022/12/20 12:21:51;;;;;;;0.70;0.70;;;;;;;;;;1799454;79;26287;-35
2022/12/20 12:24:20;;;;;;;0.50;0.50;;;;;;;;;;1818800;77;26297;-39
2022/12/20 12:26:47;;;;;;;0.60;0.60;;;;;;;;;;1817775;77;26337;-36
2022/12/20 12:29:16;;;;;;;0.78;0.60;;;;;;;;;;1820536;77;26540;-36
2022/12/20 12:31:45;;;;;;;0.72;0.50;;;;;;;;;;1818999;77;26769;-38
2022/12/20 12:34:30;;;;;;;0.68;0.68;;;;;;;;;;1816379;77;26953;-36
2022/12/20 12:36:59;;;;;;;0.53;0.53;;;;;;;;;;1823171;77;26347;-40
2022/12/20 12:39:40;;;;;;;0.50;0.50;;;;;;;;;;1806066;78;26318;-36
2022/12/20 12:42:08;;;;;;;1.90;0.55;;;;;;;;;;1800155;79;27507;-37
2022/12/20 12:44:43;;;;;;;0.50;0.50;;;;;;;;;;1817968;77;26725;-40
2022/12/20 12:47:15;;;;;;;0.68;0.50;;;;;;;;;;1786803;79;26413;-40
2022/12/20 12:49:43;;;;;;;0.55;0.50;;;;;;;;;;1786534;79;26373;-41
2022/12/20 12:52:12;;;;;;;0.40;0.40;;;;;;;;;;1797985;78;26304;-36
2022/12/20 12:54:42;;;;;;;0.70;0.57;;;;;;;;;;1806397;78;26282;-46
2022/12/20 12:57:13;;;;;;;0.50;0.50;;;;;;;;;;1797622;79;27187;-40
2022/12/20 12:59:44;;;;;;;0.42;0.42;;;;;;;;;;1791304;79;26275;-38
2022/12/20 13:02:16;;;;;;;1.35;0.40;;;;;;;;;;1801094;77;26832;-38
2022/12/20 13:05:00;;;;;;;0.50;0.50;;;;;;;;;;1796480;78;26377;-44
2022/12/20 13:07:29;;;;;;;0.93;0.60;;;;;;;;;;1800525;79;26321;-39
2022/12/20 13:09:57;;;;;;;1.12;0.50;;;;;;;;;;1816855;77;26794;-44
2022/12/20 13:12:38;;;;;;;0.50;0.50;;;;;;;;;;1820554;77;26636;-40
2022/12/20 13:15:21;;;;;;;1.50;0.50;;;;;;;;;;1825360;78;26814;-40
2022/12/20 13:17:50;;;;;;;1.00;0.50;;;;;;;;;;1824295;78;26360;-34
2022/12/20 13:20:24;;;;;;;0.60;0.55;;;;;;;;;;1820971;78;27453;-40
2022/12/20 13:22:59;;;;;;;0.60;0.60;;;;;;;;;;1787173;79;26285;-35
2022/12/20 13:25:28;;;;;;;1.00;0.50;;;;;;;;;;1789282;77;26567;-36
2022/12/20 13:27:57;;;;;;;1.45;0.55;;;;;;;;;;1788822;79;26325;-41
2022/12/20 13:30:26;;;;;;;1.55;0.65;;;;;;;;;;1809718;77;26266;-39
2022/12/20 13:32:54;;;;;;;1.32;0.55;;;;;;;;;;1815959;77;26752;-37
2022/12/20 13:35:26;;;;;;;0.42;0.42;;;;;;;;;;1807836;77;26435;-40
2022/12/20 13:38:02;;;;;;;1.30;0.40;;;;;;;;;;1786232;79;26315;-39
2022/12/20 13:40:34;;;;;;;2.10;0.68;;;;;;;;;;1820780;77;26741;-40
2022/12/20 13:43:16;;;;;;;1.47;0.60;;;;;;;;;;1817761;77;26306;-37
2022/12/20 13:45:45;;;;;;;0.75;0.60;;;;;;;;;;1788405;79;26295;-37
2022/12/20 13:48:14;;;;;;;0.78;0.62;;;;;;;;;;1786539;79;26370;-35
2022/12/20 13:50:42;;;;;;;1.82;0.57;;;;;;;;;;1822312;77;26379;-35
2022/12/20 13:53:11;;;;;;;5.58;0.60;;;;;;;;;;1820376;78;26269;-36
2022/12/20 13:55:41;;;;;;;0.70;0.70;;;;;;;;;;1819673;77;26324;-37
2022/12/20 13:58:13;;;;;;;0.82;0.70;;;;;;;;;;1824011;78;26736;-43
2022/12/20 14:00:40;;;;;;;3.05;0.65;;;;;;;;;;1823175;78;26367;-35
2022/12/20 14:03:15;;;;;;;0.70;0.70;;;;;;;;;;1819830;78;26385;-34
2022/12/20 14:05:42;;;;;;;2.85;0.80;;;;;;;;;;1816657;77;26334;-39
2022/12/20 14:08:11;;;;;;;1.00;0.90;;;;;;;;;;1820736;77;26324;-34
2022/12/20 14:10:39;;;;;;;1.30;0.80;;;;;;;;;;1798121;79;26220;-44
2022/12/20 14:13:16;;;;;;;0.95;0.95;;;;;;;;;;1791921;79;27450;-38
2022/12/20 14:15:44;;;;;;;3.62;0.80;;;;;;;;;;1793440;79;26340;-37
2022/12/20 14:18:23;;;;;;;0.70;0.70;;;;;;;;;;1807082;77;26302;-43
2022/12/20 14:20:52;;;;;;;0.80;0.80;;;;;;;;;;1811199;78;26238;-35
2022/12/20 14:23:21;;;;;;;0.70;0.70;;;;;;;;;;1805543;78;26236;-39
2022/12/20 14:25:52;;;;;;;0.70;0.70;;;;;;;;;;1761456;80;26360;-45
2022/12/20 14:28:21;;;;;;;0.70;0.70;;;;;;;;;;1794705;79;26330;-40
2022/12/20 14:30:48;;;;;;;0.70;0.70;;;;;;;;;;1801673;79;26362;-35
2022/12/20 14:33:17;;;;;;;1.47;0.50;;;;;;;;;;1805328;79;26272;-35
2022/12/20 14:35:48;;;;;;;0.53;0.53;;;;;;;;;;1802089;79;26314;-39
2022/12/20 14:38:19;;;;;;;0.70;0.60;;;;;;;;;;1801252;79;26745;-37
2022/12/20 14:40:47;;;;;;;0.50;0.50;;;;;;;;;;1795307;79;26295;-34
2022/12/20 14:43:15;;;;;;;0.60;0.60;;;;;;;;;;1800501;79;26337;-39
2022/12/20 14:45:42;;;;;;;4.67;0.60;;;;;;;;;;1797119;79;26311;-39
2022/12/20 14:48:14;;;;;;;0.50;0.50;;;;;;;;;;1799813;79;26306;-40
2022/12/20 14:50:43;;;;;;;0.50;0.50;;;;;;;;;;1797265;79;26569;-39
2022/12/20 14:53:21;;;;;;;0.68;0.50;;;;;;;;;;1799522;79;26267;-43
2022/12/20 14:55:48;;;;;;;0.57;0.57;;;;;;;;;;1798226;79;26286;-32
2022/12/20 14:58:26;;;;;;;3.02;0.50;;;;;;;;;;1799824;79;26784;-40
2022/12/20 15:01:01;;;;;;;0.85;0.70;;;;;;;;;;1798661;79;26260;-38
2022/12/20 15:03:28;;;;;;;0.60;0.60;;;;;;;;;;1796655;79;26329;-51